createdAt,value
2023-07-15T00:01:04.284Z,4.93
2023-07-15T00:04:13.270Z,6.22
2023-07-15T00:07:16.222Z,4.32
2023-07-15T00:10:19.208Z,3.00
2023-07-15T00:13:22.095Z,4.45
2023-07-15T00:16:25.601Z,3.37
2023-07-15T00:19:28.623Z,4.28
2023-07-15T00:22:31.469Z,2.67
2023-07-15T00:25:37.287Z,2.20
2023-07-15T00:28:40.221Z,2.33
2023-07-15T00:31:45.525Z,3.28
2023-07-15T00:34:48.541Z,2.05
2023-07-15T00:37:51.501Z,2.35
2023-07-15T00:40:54.582Z,2.37
2023-07-15T00:44:00.601Z,1.45
2023-07-15T00:47:17.754Z,1.52
2023-07-15T00:50:20.626Z,1.48
2023-07-15T00:53:23.483Z,1.70
2023-07-15T00:56:27.295Z,1.40
2023-07-15T00:59:31.089Z,1.05
2023-07-15T01:02:34.249Z,2.55
2023-07-15T01:05:37.162Z,1.30
2023-07-15T01:08:41.302Z,1.00
2023-07-15T01:11:44.823Z,1.13
2023-07-15T01:14:49.144Z,1.40
2023-07-15T01:17:52.114Z,0.80
2023-07-15T01:20:58.823Z,0.80
2023-07-15T01:24:02.594Z,1.10
2023-07-15T01:27:08.774Z,1.30
2023-07-15T01:30:11.894Z,1.08
2023-07-15T01:33:17.691Z,1.30
2023-07-15T01:36:20.533Z,1.08
2023-07-15T01:39:23.586Z,0.90
2023-07-15T01:42:26.406Z,1.10
2023-07-15T01:45:29.308Z,0.98
2023-07-15T01:48:32.226Z,1.02
2023-07-15T01:51:38.977Z,1.00
2023-07-15T01:54:41.845Z,1.17
2023-07-15T01:57:44.732Z,0.90
2023-07-15T02:00:47.599Z,1.00
2023-07-15T02:03:50.752Z,0.80
2023-07-15T02:06:53.701Z,1.00
2023-07-15T02:09:59.397Z,0.80
2023-07-15T02:13:02.210Z,0.93
2023-07-15T02:16:08.031Z,0.93
2023-07-15T02:19:12.068Z,0.80
2023-07-15T02:22:14.927Z,0.80
2023-07-15T02:25:18.070Z,0.70
2023-07-15T02:28:22.867Z,0.70
2023-07-15T02:31:25.750Z,1.20
2023-07-15T02:34:28.708Z,0.85
2023-07-15T02:37:31.540Z,0.70
2023-07-15T02:40:37.784Z,0.85
2023-07-15T02:43:40.930Z,1.00
2023-07-15T02:46:43.778Z,0.90
2023-07-15T02:49:46.563Z,0.95
2023-07-15T02:52:49.525Z,0.70
2023-07-15T02:55:52.470Z,1.33
2023-07-15T02:58:55.574Z,0.80
2023-07-15T03:02:01.278Z,0.77
2023-07-15T03:05:04.369Z,0.70
2023-07-15T03:08:07.227Z,0.82
2023-07-15T03:11:10.186Z,0.60
2023-07-15T03:14:13.073Z,3.43
2023-07-15T03:17:16.537Z,0.90
2023-07-15T03:20:22.337Z,0.80
2023-07-15T03:23:25.126Z,0.82
2023-07-15T03:26:27.973Z,0.93
2023-07-15T03:29:31.371Z,0.70
2023-07-15T03:32:34.380Z,0.65
2023-07-15T03:35:37.852Z,0.70
2023-07-15T03:38:41.777Z,0.70
2023-07-15T03:41:47.908Z,0.80
2023-07-15T03:44:50.772Z,0.73
2023-07-15T03:47:54.724Z,0.70
2023-07-15T03:50:57.654Z,0.60
2023-07-15T03:54:00.416Z,1.00
2023-07-15T03:57:03.986Z,0.73
2023-07-15T04:00:18.701Z,0.80
2023-07-15T04:03:22.549Z,0.85
2023-07-15T04:06:25.525Z,0.82
2023-07-15T04:09:32.230Z,0.80
2023-07-15T04:12:35.214Z,0.90
2023-07-15T04:15:41.124Z,0.67
2023-07-15T04:18:43.981Z,0.80
2023-07-15T04:21:46.937Z,0.90
2023-07-15T04:24:49.810Z,0.90
2023-07-15T04:27:52.805Z,1.23
2023-07-15T04:30:55.653Z,0.87
2023-07-15T04:33:58.598Z,0.90
2023-07-15T04:37:01.477Z,0.90
2023-07-15T04:40:05.627Z,1.20
2023-07-15T04:43:08.481Z,1.05
2023-07-15T04:46:12.139Z,1.10
2023-07-15T04:49:15.169Z,1.35
2023-07-15T04:52:18.069Z,1.00
2023-07-15T04:55:20.922Z,1.23
2023-07-15T04:58:23.868Z,1.20
2023-07-15T05:01:27.213Z,1.40
2023-07-15T05:04:30.210Z,1.45
2023-07-15T05:07:51.406Z,1.37
2023-07-15T05:10:59.229Z,1.35
2023-07-15T05:14:02.400Z,1.20
2023-07-15T05:17:07.264Z,1.70
2023-07-15T05:20:10.523Z,1.20
2023-07-15T05:23:14.109Z,1.25
2023-07-15T05:26:17.770Z,1.27
2023-07-15T05:29:20.631Z,1.30
2023-07-15T05:32:23.513Z,1.50
2023-07-15T05:35:29.464Z,1.40
2023-07-15T05:38:43.062Z,1.45
2023-07-15T05:41:46.053Z,1.30
2023-07-15T05:44:49.031Z,1.80
2023-07-15T05:47:52.275Z,1.53
2023-07-15T05:50:55.208Z,1.70
2023-07-15T05:53:58.318Z,1.75
2023-07-15T05:57:01.643Z,1.60
2023-07-15T06:00:05.985Z,1.70
2023-07-15T06:03:10.370Z,1.70
2023-07-15T06:06:14.648Z,1.70
2023-07-15T06:09:17.738Z,1.80
2023-07-15T06:12:20.841Z,2.00
2023-07-15T06:15:23.806Z,1.80
2023-07-15T06:18:26.741Z,1.90
2023-07-15T06:21:29.708Z,1.90
2023-07-15T06:24:32.553Z,1.50
2023-07-15T06:27:35.399Z,2.00
2023-07-15T06:30:41.292Z,2.62
2023-07-15T06:33:46.675Z,2.20
2023-07-15T06:36:49.763Z,2.30
2023-07-15T06:39:53.022Z,1.98
2023-07-15T06:42:56.094Z,2.00
2023-07-15T06:45:59.906Z,2.10
2023-07-15T06:49:02.730Z,2.20
2023-07-15T06:52:08.909Z,2.55
2023-07-15T06:55:12.198Z,2.30
2023-07-15T06:58:15.093Z,2.20
2023-07-15T07:01:18.919Z,2.65
2023-07-15T07:04:22.275Z,2.50
2023-07-15T07:07:25.238Z,2.40
2023-07-15T07:10:28.137Z,2.55
2023-07-15T07:13:31.343Z,2.55
2023-07-15T07:16:34.208Z,2.45
2023-07-15T07:19:37.834Z,2.30
2023-07-15T07:22:40.870Z,2.60
2023-07-15T07:25:44.029Z,2.25
2023-07-15T07:28:47.001Z,2.80
2023-07-15T07:31:49.868Z,2.30
2023-07-15T07:34:52.782Z,2.40
2023-07-15T07:37:56.222Z,2.50
2023-07-15T07:41:11.274Z,2.40
2023-07-15T07:44:14.201Z,2.47
2023-07-15T07:47:19.962Z,2.92
2023-07-15T07:50:23.068Z,2.67
2023-07-15T07:53:26.493Z,2.30
2023-07-15T07:56:29.685Z,2.50
2023-07-15T07:59:36.778Z,2.90
2023-07-15T08:02:39.725Z,2.50
2023-07-15T08:05:47.487Z,2.50
2023-07-15T08:08:54.841Z,2.78
2023-07-15T08:11:57.781Z,2.33
2023-07-15T08:15:12.754Z,2.60
2023-07-15T08:18:18.772Z,2.80
2023-07-15T08:21:21.705Z,2.80
2023-07-15T08:24:24.684Z,2.80
2023-07-15T08:27:27.648Z,2.80
2023-07-15T08:30:37.827Z,2.70
2023-07-15T08:33:44.318Z,2.75
2023-07-15T08:36:47.218Z,2.90
2023-07-15T08:39:50.167Z,2.87
2023-07-15T08:42:54.073Z,2.90
2023-07-15T08:46:00.158Z,3.00
2023-07-15T08:49:04.243Z,2.92
2023-07-15T08:52:07.791Z,3.90
2023-07-15T08:55:14.645Z,2.92
2023-07-15T08:58:17.764Z,2.80
2023-07-15T09:01:23.783Z,3.28
2023-07-15T09:04:27.521Z,2.97
2023-07-15T09:07:31.964Z,3.30
2023-07-15T09:10:39.454Z,3.15
2023-07-15T09:13:46.320Z,3.20
2023-07-15T09:16:49.501Z,3.85
2023-07-15T09:19:52.906Z,3.30
2023-07-15T09:22:57.666Z,3.20
2023-07-15T09:26:02.020Z,3.22
2023-07-15T09:29:05.695Z,3.25
2023-07-15T09:32:11.857Z,3.28
2023-07-15T09:35:18.007Z,3.20
2023-07-15T09:38:24.005Z,3.47
2023-07-15T09:41:27.129Z,3.30
2023-07-15T09:44:47.296Z,3.55
2023-07-15T09:47:50.346Z,3.22
2023-07-15T09:50:53.226Z,3.50
2023-07-15T09:53:57.280Z,3.60
2023-07-15T09:57:12.109Z,3.50
2023-07-15T10:00:17.220Z,3.70
2023-07-15T10:03:25.509Z,3.47
2023-07-15T10:06:29.699Z,3.75
2023-07-15T10:09:33.234Z,3.60
2023-07-15T10:12:36.728Z,3.70
2023-07-15T10:15:39.939Z,4.07
2023-07-15T10:18:42.832Z,3.40
2023-07-15T10:21:49.876Z,3.40
2023-07-15T10:24:56.792Z,3.90
2023-07-15T10:28:15.618Z,4.10
2023-07-15T10:31:18.651Z,3.85
2023-07-15T10:34:36.359Z,3.87
2023-07-15T10:37:39.252Z,3.70
2023-07-15T10:40:48.316Z,4.00
2023-07-15T10:43:51.981Z,3.90
2023-07-15T10:47:01.049Z,3.75
2023-07-15T10:50:04.058Z,3.75
2023-07-15T10:53:24.199Z,3.90
2023-07-15T10:56:27.153Z,4.17
2023-07-15T10:59:38.057Z,3.65
2023-07-15T11:02:41.039Z,3.92
2023-07-15T11:05:46.896Z,3.83
2023-07-15T11:08:49.749Z,4.18
2023-07-15T11:11:52.901Z,4.50
2023-07-15T11:14:55.837Z,4.10
2023-07-15T11:17:58.737Z,4.05
2023-07-15T11:21:02.304Z,3.87
2023-07-15T11:24:05.465Z,4.03
2023-07-15T11:27:08.494Z,4.50
2023-07-15T11:30:12.032Z,4.60
2023-07-15T11:33:15.855Z,4.25
2023-07-15T11:36:18.878Z,4.65
2023-07-15T11:39:22.314Z,4.60
2023-07-15T11:42:25.424Z,4.50
2023-07-15T11:45:28.255Z,4.93
2023-07-15T11:48:37.779Z,4.65
2023-07-15T11:51:44.345Z,4.50
2023-07-15T11:54:47.555Z,4.47
2023-07-15T11:57:53.976Z,4.43
2023-07-15T12:00:56.896Z,5.12
2023-07-15T12:03:59.957Z,4.87
2023-07-15T12:07:06.187Z,4.60
2023-07-15T12:10:11.892Z,4.78
2023-07-15T12:13:14.982Z,4.63
2023-07-15T12:16:19.269Z,5.35
2023-07-15T12:19:25.259Z,4.82
2023-07-15T12:22:28.730Z,4.75
2023-07-15T12:25:31.800Z,5.28
2023-07-15T12:28:34.661Z,5.00
2023-07-15T12:31:37.562Z,4.75
2023-07-15T12:34:40.469Z,4.78
2023-07-15T12:37:43.293Z,4.78
2023-07-15T12:40:46.338Z,5.00
2023-07-15T12:43:49.162Z,4.90
2023-07-15T12:46:52.511Z,5.10
2023-07-15T12:49:55.554Z,4.97
2023-07-15T12:52:58.531Z,5.07
2023-07-15T12:56:05.207Z,5.37
2023-07-15T12:59:08.164Z,5.60
2023-07-15T13:02:14.121Z,5.25
2023-07-15T13:05:17.148Z,4.85
2023-07-15T13:08:20.135Z,5.10
2023-07-15T13:11:22.950Z,5.30
2023-07-15T13:14:25.789Z,5.67
2023-07-15T13:17:31.834Z,4.95
2023-07-15T13:20:34.788Z,5.68
2023-07-15T13:23:37.704Z,5.12
2023-07-15T13:26:40.535Z,5.03
2023-07-15T13:29:43.644Z,5.33
2023-07-15T13:32:46.552Z,5.00
2023-07-15T13:35:49.632Z,5.15
2023-07-15T13:38:56.822Z,5.90
2023-07-15T13:42:01.781Z,5.40
2023-07-15T13:45:04.874Z,5.90
2023-07-15T13:48:07.846Z,6.40
2023-07-15T13:51:10.774Z,5.32
2023-07-15T13:54:13.836Z,5.60
2023-07-15T13:57:16.733Z,5.47
2023-07-15T14:00:19.615Z,5.70
2023-07-15T14:03:22.454Z,5.93
2023-07-15T14:06:25.356Z,5.35
2023-07-15T14:09:28.253Z,5.50
2023-07-15T14:12:31.128Z,5.80
2023-07-15T14:15:34.046Z,5.57
2023-07-15T14:18:37.065Z,5.62
2023-07-15T14:21:40.173Z,6.10
2023-07-15T14:24:43.144Z,5.25
2023-07-15T14:27:46.133Z,5.80
2023-07-15T14:30:49.458Z,5.93
2023-07-15T14:33:55.657Z,5.70
2023-07-15T14:36:58.931Z,5.37
2023-07-15T14:40:02.124Z,5.57
2023-07-15T14:43:05.116Z,5.70
2023-07-15T14:46:10.106Z,5.00
2023-07-15T14:49:13.252Z,5.62
2023-07-15T14:52:16.186Z,5.93
2023-07-15T14:55:19.307Z,6.15
2023-07-15T14:58:22.051Z,6.18
2023-07-15T15:01:26.400Z,5.87
2023-07-15T15:04:32.124Z,6.07
2023-07-15T15:07:35.035Z,5.75
2023-07-15T15:10:39.601Z,5.22
2023-07-15T15:13:47.601Z,5.47
2023-07-15T15:16:52.286Z,6.53
2023-07-15T15:19:55.286Z,5.85
2023-07-15T15:22:58.183Z,6.37
2023-07-15T15:26:01.041Z,5.62
2023-07-15T15:29:03.959Z,6.30
2023-07-15T15:32:07.614Z,5.83
2023-07-15T15:35:12.130Z,6.05
2023-07-15T15:38:15.098Z,5.57
2023-07-15T15:41:18.116Z,5.93
2023-07-15T15:44:21.272Z,5.70
2023-07-15T15:47:24.333Z,6.00
2023-07-15T15:50:27.500Z,6.15
2023-07-15T15:53:30.428Z,4.93
2023-07-15T15:56:34.282Z,5.57
2023-07-15T15:59:40.243Z,5.55
2023-07-15T16:02:46.172Z,5.30
2023-07-15T16:05:49.093Z,5.70
2023-07-15T16:08:52.560Z,4.97
2023-07-15T16:11:55.442Z,5.68
2023-07-15T16:14:58.457Z,5.60
2023-07-15T16:18:01.372Z,5.27
2023-07-15T16:21:04.627Z,5.43
2023-07-15T16:24:07.603Z,5.62
2023-07-15T16:27:10.549Z,5.53
2023-07-15T16:30:13.519Z,5.05
2023-07-15T16:33:16.511Z,5.13
2023-07-15T16:36:19.409Z,5.20
2023-07-15T16:39:22.383Z,5.00
2023-07-15T16:42:25.641Z,5.30
2023-07-15T16:45:28.511Z,5.00
2023-07-15T16:48:32.237Z,4.70
2023-07-15T16:51:35.102Z,4.95
2023-07-15T16:54:38.020Z,4.12
2023-07-15T16:57:40.880Z,4.70
2023-07-15T17:00:43.886Z,5.03
2023-07-15T17:03:46.999Z,4.93
2023-07-15T17:06:50.136Z,4.35
2023-07-15T17:09:52.990Z,4.10
2023-07-15T17:12:55.900Z,3.95
2023-07-15T17:15:58.820Z,4.50
2023-07-15T17:19:01.739Z,4.40
2023-07-15T17:22:07.758Z,4.53
2023-07-15T17:25:10.755Z,3.90
2023-07-15T17:28:13.766Z,3.70
2023-07-15T17:31:16.864Z,3.60
2023-07-15T17:34:20.168Z,4.13
2023-07-15T17:37:24.631Z,4.45
2023-07-15T17:40:27.573Z,4.07
2023-07-15T17:43:30.465Z,3.92
2023-07-15T17:46:36.387Z,4.00
2023-07-15T17:49:39.324Z,4.20
2023-07-15T17:52:42.313Z,3.83
2023-07-15T17:55:46.230Z,3.50
2023-07-15T17:58:49.446Z,3.90
2023-07-15T18:01:52.455Z,3.92
2023-07-15T18:05:02.138Z,4.33
2023-07-15T18:08:08.931Z,3.58
2023-07-15T18:11:12.458Z,3.80
2023-07-15T18:14:15.310Z,3.60
2023-07-15T18:17:18.221Z,3.35
2023-07-15T18:20:25.802Z,3.37
2023-07-15T18:23:31.549Z,4.05
2023-07-15T18:26:34.429Z,3.62
2023-07-15T18:29:37.301Z,3.72
2023-07-15T18:32:43.427Z,3.58
2023-07-15T18:35:46.416Z,4.00
2023-07-15T18:38:49.368Z,3.40
2023-07-15T18:41:52.300Z,3.53
2023-07-15T18:44:56.137Z,3.00
2023-07-15T18:47:59.102Z,3.20
2023-07-15T18:51:02.131Z,3.10
2023-07-15T18:54:05.687Z,3.33
2023-07-15T18:57:21.573Z,3.28
2023-07-15T19:00:26.281Z,3.33
2023-07-15T19:03:29.269Z,3.40
2023-07-15T19:06:32.264Z,3.20
2023-07-15T19:09:35.275Z,3.30
2023-07-15T19:12:38.274Z,2.90
2023-07-15T19:15:41.160Z,3.55
2023-07-15T19:18:44.322Z,2.90
2023-07-15T19:21:47.335Z,3.57
2023-07-15T19:24:50.189Z,3.05
2023-07-15T19:27:54.284Z,3.03
2023-07-15T19:30:57.204Z,3.28
2023-07-15T19:34:00.387Z,3.03
2023-07-15T19:37:03.332Z,3.00
2023-07-15T19:40:07.164Z,3.25
2023-07-15T19:43:10.060Z,3.17
2023-07-15T19:46:13.115Z,3.45
2023-07-15T19:49:17.725Z,2.65
2023-07-15T19:52:20.898Z,2.80
2023-07-15T19:55:23.897Z,2.90
2023-07-15T19:58:28.285Z,3.40
2023-07-15T20:01:34.365Z,2.97
2023-07-15T20:04:37.526Z,3.40
2023-07-15T20:07:40.531Z,2.97
2023-07-15T20:10:43.625Z,3.00
2023-07-15T20:13:46.481Z,2.62
2023-07-15T20:16:49.656Z,3.33
2023-07-15T20:19:52.893Z,2.78
2023-07-15T20:22:59.605Z,2.60
2023-07-15T20:26:04.020Z,3.05
2023-07-15T20:29:09.718Z,3.17
2023-07-15T20:32:14.317Z,3.12
2023-07-15T20:35:17.947Z,2.85
2023-07-15T20:38:21.089Z,3.10
2023-07-15T20:41:24.141Z,2.87
2023-07-15T20:44:27.178Z,2.78
2023-07-15T20:47:30.286Z,2.97
2023-07-15T20:50:33.286Z,2.97
2023-07-15T20:53:36.240Z,2.83
2023-07-15T20:56:41.233Z,3.17
2023-07-15T20:59:47.292Z,2.72
2023-07-15T21:02:50.975Z,2.58
2023-07-15T21:05:59.351Z,2.87
2023-07-15T21:09:02.336Z,4.13
2023-07-15T21:12:08.675Z,3.00
2023-07-15T21:15:14.652Z,2.45
2023-07-15T21:18:22.498Z,3.15
2023-07-15T21:21:25.396Z,2.58
2023-07-15T21:24:28.222Z,2.77
2023-07-15T21:27:31.146Z,2.53
2023-07-15T21:30:34.104Z,2.80
2023-07-15T21:33:37.770Z,2.65
2023-07-15T21:36:40.645Z,2.83
2023-07-15T21:39:43.850Z,2.87
2023-07-15T21:42:49.658Z,2.78
2023-07-15T21:45:54.027Z,2.83
2023-07-15T21:48:57.014Z,2.67
2023-07-15T21:51:59.858Z,2.67
2023-07-15T21:55:02.773Z,2.70
2023-07-15T21:58:05.803Z,2.75
2023-07-15T22:01:08.693Z,2.97
2023-07-15T22:04:11.630Z,2.83
2023-07-15T22:07:14.521Z,2.50
2023-07-15T22:10:18.325Z,2.90
2023-07-15T22:13:21.396Z,2.60
2023-07-15T22:16:24.394Z,2.47
2023-07-15T22:19:27.293Z,2.80
2023-07-15T22:22:30.248Z,2.75
2023-07-15T22:25:33.302Z,2.33
2023-07-15T22:28:36.414Z,2.45
2023-07-15T22:31:39.563Z,2.75
2023-07-15T22:34:43.364Z,2.37
2023-07-15T22:37:46.264Z,2.30
2023-07-15T22:40:49.209Z,2.20
2023-07-15T22:43:52.206Z,2.83
2023-07-15T22:47:02.122Z,2.83
2023-07-15T22:50:05.657Z,3.22
2023-07-15T22:53:08.682Z,2.25
2023-07-15T22:56:12.054Z,2.50
2023-07-15T22:59:18.051Z,2.03
2023-07-15T23:02:20.950Z,2.50
2023-07-15T23:05:23.943Z,2.40
2023-07-15T23:08:26.865Z,2.20
2023-07-15T23:11:30.097Z,3.27
2023-07-15T23:14:32.959Z,3.00
2023-07-15T23:17:35.949Z,2.85
2023-07-15T23:20:38.880Z,2.25
2023-07-15T23:23:43.464Z,2.72
2023-07-15T23:26:46.292Z,2.33
2023-07-15T23:29:49.153Z,2.90
2023-07-15T23:32:52.695Z,2.67
2023-07-15T23:35:58.749Z,2.55
2023-07-15T23:39:01.525Z,2.55
2023-07-15T23:42:04.759Z,2.10
2023-07-15T23:45:08.109Z,2.05
2023-07-15T23:48:11.012Z,2.40
2023-07-15T23:51:14.370Z,2.12
2023-07-15T23:54:20.099Z,2.03
2023-07-15T23:57:24.387Z,2.33
